W0LTA Weather Reports


Display with metric or nautical units.
time (UTC)temp
F
wind
direction
speed
MPH
gust
MPH
rain 1hr
in
rain 24hr
in
rain mn
in
humidity
%
barometer
mb
20170820171234 87 147 1.0 5.0 0.00 0.00 0.00 20 1026.6
20170820170731 88 146 2.0 6.0 0.00 0.00 0.00 21 1026.6
20170820170227 87 59 2.0 7.0 0.00 0.00 0.00 22 1026.6
20170820165747 86 61 3.0 11.0 0.00 0.00 0.00 25 1026.5
20170820165228 84 41 6.0 12.0 0.00 0.00 0.00 25 1026.6
20170820164727 83 30 7.0 12.0 0.00 0.00 0.00 24 1026.5
20170820164245 82 65 5.0 8.0 0.00 0.00 0.00 26 1026.4
20170820163746 81 43 4.0 7.0 0.00 0.00 0.00 26 1026.3
20170820163228 80 30 1.0 4.0 0.00 0.00 0.00 28 1026.2
20170820162746 79 30 1.0 4.0 0.00 0.00 0.00 29 1026.2
20170820162245 78 30 0.0 4.0 0.00 0.00 0.00 32 1026.1
20170820161743 77 30 1.0 4.0 0.00 0.00 0.00 38 1026.2
20170820161242 76 30 0.0 4.0 0.00 0.00 0.00 42 1026.2
20170820160741 75 30 0.0 3.0 0.00 0.00 0.00 43 1026.2
20170820160228 74 30 0.0 3.0 0.00 0.00 0.00 47 1026.3
20170820155731 74 30 0.0 3.0 0.00 0.00 0.00 46 1026.3
20170820155228 73 30 0.0 1.0 0.00 0.00 0.00 45 1026.3
20170820154725 72 30 0.0 0.0 0.00 0.00 0.00 44 1026.2
20170820154226 71 30 0.0 0.0 0.00 0.00 0.00 47 1026.2
20170820153729 71 30 0.0 1.0 0.00 0.00 0.00 47 1026.1
20170820153227 71 31 0.0 1.0 0.00 0.00 0.00 49 1026.2
20170820152728 70 31 0.0 0.0 0.00 0.00 0.00 50 1026.1
20170820152226 69 31 0.0 0.0 0.00 0.00 0.00 50 1026.1
20170820151725 69 31 0.0 1.0 0.00 0.00 0.00 55 1026.0
20170820151246 68 31 0.0 0.0 0.00 0.00 0.00 56 1025.9
20170820150734 68 31 0.0 0.0 0.00 0.00 0.00 54 1025.9
20170820150235 67 31 0.0 0.0 0.00 0.00 0.00 52 1026.0
20170820145734 67 31 0.0 0.0 0.00 0.00 0.00 52 1025.9
20170820145240 67 31 0.0 0.0 0.00 0.00 0.00 53 1025.9
20170820144742 67 31 0.0 0.0 0.00 0.00 0.00 50 1025.9
20170820144239 67 31 0.0 0.0 0.00 0.00 0.00 50 1025.9
20170820143741 67 31 0.0 0.0 0.00 0.00 0.00 53 1025.9
20170820143242 67 31 0.0 0.0 0.00 0.00 0.00 54 1025.8
20170820142740 67 31 0.0 0.0 0.00 0.00 0.00 55 1025.9
20170820142242 67 31 0.0 0.0 0.00 0.00 0.00 56 1025.8
20170820141743 66 31 0.0 0.0 0.00 0.00 0.00 56 1025.8
20170820141244 66 31 0.0 0.0 0.00 0.00 0.00 55 1025.8
20170820140727 65 31 0.0 0.0 0.00 0.00 0.00 54 1025.8
20170820140228 65 31 0.0 0.0 0.00 0.00 0.00 54 1025.7
20170820135726 64 31 0.0 0.0 0.00 0.00 0.00 52 1025.6
20170820135233 64 31 0.0 0.0 0.00 0.00 0.00 52 1025.6
20170820134730 63 31 0.0 2.0 0.00 0.00 0.00 54 1025.5
20170820134228 62 31 1.0 2.0 0.00 0.00 0.00 55 1025.4
20170820133728 62 31 0.0 1.0 0.00 0.00 0.00 57 1025.4
20170820133229 61 31 0.0 1.0 0.00 0.00 0.00 58 1025.4
20170820132732 61 31 0.0 1.0 0.00 0.00 0.00 58 1025.4
20170820132229 61 31 0.0 1.0 0.00 0.00 0.00 58 1025.3
20170820131728 60 31 0.0 0.0 0.00 0.00 0.00 59 1025.3
20170820131245 60 31 0.0 0.0 0.00 0.00 0.00 58 1025.3
20170820130742 60 31 0.0 0.0 0.00 0.00 0.00 58 1025.2
20170820130245 60 32 0.0 0.0 0.00 0.00 0.00 58 1025.2
20170820125743 60 32 0.0 3.0 0.00 0.00 0.00 58 1025.2
20170820125243 60 31 2.0 4.0 0.00 0.00 0.00 58 1025.0
20170820124742 60 32 3.0 4.0 0.00 0.00 0.00 58 1024.9
20170820124227 60 32 0.0 3.0 0.00 0.00 0.00 58 1024.8
20170820123724 60 31 0.0 1.0 0.00 0.00 0.00 58 1024.8
20170820123247 60 31 0.0 1.0 0.00 0.00 0.00 58 1024.8
20170820122740 60 31 0.0 1.0 0.00 0.00 0.00 57 1024.7
20170820122237 60 31 0.0 1.0 0.00 0.00 0.00 57 1024.7
20170820121738 60 31 0.0 0.0 0.00 0.00 0.00 57 1024.7
20170820121237 60 31 0.0 0.0 0.00 0.00 0.00 56 1024.7
20170820120735 60 31 0.0 0.0 0.00 0.00 0.00 56 1024.6
20170820120237 60 31 0.0 2.0 0.00 0.00 0.00 56 1024.6
20170820115735 60 31 0.0 2.0 0.00 0.00 0.00 56 1024.4
20170820115236 61 31 0.0 0.0 0.00 0.00 0.00 56 1024.4
20170820114733 61 31 0.0 0.0 0.00 0.00 0.00 55 1024.4
20170820114231 61 31 0.0 0.0 0.00 0.00 0.00 55 1024.3
20170820113742 61 31 0.0 0.0 0.00 0.00 0.00 56 1024.2
20170820113224 61 31 0.0 3.0 0.00 0.00 0.00 56 1024.2
20170820112724 61 31 2.0 4.0 0.00 0.00 0.00 56 1024.2
20170820112244 61 31 3.0 4.0 0.00 0.00 0.00 57 1024.3
20170820111745 61 31 1.0 3.0 0.00 0.00 0.00 59 1024.4
20170820111242 61 31 0.0 1.0 0.00 0.00 0.00 61 1024.3
20170820110740 61 31 0.0 0.0 0.00 0.00 0.00 61 1024.3
20170820110237 61 31 0.0 0.0 0.00 0.00 0.00 61 1024.3
20170820105742 61 31 0.0 0.0 0.00 0.00 0.00 60 1024.2
20170820105243 62 31 0.0 0.0 0.00 0.00 0.00 60 1024.2
20170820104723 62 31 0.0 0.0 0.00 0.00 0.00 60 1024.2
20170820104226 62 31 0.0 1.0 0.00 0.00 0.00 60 1024.1
20170820103729 62 31 0.0 1.0 0.00 0.00 0.00 59 1024.2
20170820103227 62 31 0.0 1.0 0.00 0.00 0.00 56 1024.2
20170820102736 62 31 0.0 0.0 0.00 0.00 0.00 55 1024.2
20170820102228 62 31 0.0 0.0 0.00 0.00 0.00 54 1024.2
20170820101730 63 31 0.0 0.0 0.00 0.00 0.00 54 1024.2
20170820101226 63 31 0.0 0.0 0.00 0.00 0.00 54 1024.2
20170820100746 63 31 0.0 0.0 0.00 0.00 0.00 53 1024.2
20170820100242 63 31 0.0 0.0 0.00 0.00 0.00 52 1024.2
20170820095741 63 31 0.0 0.0 0.00 0.00 0.00 52 1024.1
20170820095242 63 31 0.0 0.0 0.00 0.00 0.00 52 1024.1
20170820094744 63 31 0.0 0.0 0.00 0.00 0.00 52 1024.3
20170820094242 63 31 0.0 3.0 0.00 0.00 0.00 51 1024.4
20170820093741 63 31 0.0 3.0 0.00 0.00 0.00 50 1024.4
20170820093242 63 31 2.0 3.0 0.00 0.00 0.00 50 1024.2
20170820092746 63 31 0.0 2.0 0.00 0.00 0.00 50 1024.3
20170820092246 64 31 0.0 2.0 0.00 0.00 0.00 50 1024.2
20170820091744 64 31 0.0 2.0 0.00 0.00 0.00 50 1024.2
20170820091242 64 31 0.0 1.0 0.00 0.00 0.00 49 1024.3
20170820090738 65 31 0.0 0.0 0.00 0.00 0.00 48 1024.3
20170820090235 65 31 0.0 0.0 0.00 0.00 0.00 47 1024.4
20170820085734 65 31 0.0 0.0 0.00 0.00 0.00 47 1024.2
20170820085232 65 31 0.0 1.0 0.00 0.00 0.00 46 1024.1
20170820084745 65 31 0.0 1.0 0.00 0.00 0.00 46 1024.1
20170820084243 66 31 0.0 0.0 0.00 0.00 0.00 45 1024.3
20170820083742 66 31 0.0 1.0 0.00 0.00 0.00 44 1024.3
20170820083241 66 31 0.0 1.0 0.00 0.00 0.00 44 1024.2
20170820082738 66 31 0.0 0.0 0.00 0.00 0.00 43 1024.2
20170820082239 66 31 0.0 3.0 0.00 0.00 0.00 43 1024.2
20170820081744 67 31 0.0 4.0 0.00 0.00 0.00 43 1024.1
20170820081226 67 30 2.0 4.0 0.00 0.00 0.00 42 1024.1
20170820080728 67 31 0.0 1.0 0.00 0.00 0.00 42 1024.1
20170820080229 68 31 0.0 0.0 0.00 0.00 0.00 41 1024.1
20170820075727 68 31 0.0 0.0 0.00 0.00 0.00 41 1024.1
20170820075240 68 31 0.0 0.0 0.00 0.00 0.00 39 1024.1
20170820074739 69 31 0.0 0.0 0.00 0.00 0.00 40 1024.2
20170820074234 69 31 0.0 0.0 0.00 0.00 0.00 39 1024.2
20170820073732 69 31 0.0 0.0 0.00 0.00 0.00 38 1024.2
20170820073234 70 31 0.0 1.0 0.00 0.00 0.00 37 1024.4
20170820072734 70 30 0.0 0.0 0.00 0.00 0.00 36 1024.4
20170820072231 71 30 0.0 0.0 0.00 0.00 0.00 34 1024.3
20170820071730 72 31 0.0 0.0 0.00 0.00 0.00 33 1024.4
20170820070727 73 30 0.0 0.0 0.00 0.00 0.00 31 1024.4
20170820070228 74 30 0.0 1.0 0.00 0.00 0.00 30 1024.5
20170820065729 74 30 0.0 3.0 0.00 0.00 0.00 29 1024.5
20170820065229 75 30 1.0 5.0 0.00 0.00 0.00 29 1024.6
20170820064730 75 30 2.0 5.0 0.00 0.00 0.00 27 1024.6
20170820064236 76 31 0.0 3.0 0.00 0.00 0.00 26 1024.5
20170820063731 76 31 0.0 12.0 0.00 0.00 0.00 26 1024.4
20170820063230 77 33 4.0 12.0 0.00 0.00 0.00 24 1024.3
20170820062730 78 18 5.0 6.0 0.00 0.00 0.00 26 1024.4
20170820062233 79 21 2.0 7.0 0.00 0.00 0.00 24 1024.5
20170820061732 79 21 3.0 7.0 0.00 0.00 0.00 23 1024.5
20170820061229 79 198 0.0 7.0 0.00 0.00 0.00 21 1024.1
20170820060731 80 197 5.0 7.0 0.00 0.00 0.00 21 1023.9
20170820060229 80 221 4.0 6.0 0.00 0.00 0.00 20 1023.8
20170820055745 80 225 2.0 7.0 0.00 0.00 0.00 20 1023.7
20170820055243 80 224 2.0 7.0 0.00 0.00 0.00 19 1023.7
20170820054742 80 219 1.0 4.0 0.00 0.00 0.00 18 1023.7
20170820054242 80 219 2.0 4.0 0.00 0.00 0.00 18 1023.7
20170820053724 81 284 0.0 3.0 0.00 0.00 0.00 20 1023.7
20170820053226 81 284 0.0 2.0 0.00 0.00 0.00 21 1023.7
20170820052726 80 284 0.0 6.0 0.00 0.00 0.00 19 1023.8
20170820052228 80 286 1.0 6.0 0.00 0.00 0.00 19 1023.9
20170820051730 78 284 3.0 8.0 0.00 0.00 0.00 21 1024.0
20170820051231 77 246 4.0 8.0 0.00 0.00 0.00 23 1024.1
20170820050735 77 242 0.0 5.0 0.00 0.00 0.00 26 1024.2
20170820050233 77 242 1.0 5.0 0.00 0.00 0.00 26 1024.4
20170820045730 76 252 1.0 8.0 0.00 0.00 0.00 27 1024.5
20170820045229 77 278 3.0 8.0 0.00 0.00 0.00 28 1024.6
20170820044726 77 287 1.0 6.0 0.00 0.00 0.00 29 1024.5
20170820044244 78 284 2.0 8.0 0.00 0.00 0.00 27 1024.3
20170820043742 78 285 3.0 8.0 0.00 0.00 0.00 27 1024.3
20170820043239 79 311 3.0 6.0 0.00 0.00 0.00 28 1024.2
20170820042738 80 341 1.0 4.0 0.00 0.00 0.00 26 1024.1
20170820042239 81 30 1.0 8.0 0.00 0.00 0.00 24 1024.1
20170820041736 82 21 3.0 8.0 0.00 0.00 0.00 23 1024.1
20170820041233 83 169 0.0 5.0 0.00 0.00 0.00 18 1023.7
20170820040731 83 200 2.0 4.0 0.00 0.00 0.00 18 1023.7
20170820040231 83 200 1.0 7.0 0.00 0.00 0.00 16 1023.7
20170820035732 83 200 1.0 11.0 0.00 0.00 0.00 16 1023.7
20170820035232 82 237 5.0 11.0 0.00 0.00 0.00 16 1023.6
20170820034730 81 215 4.0 15.0 0.00 0.00 0.00 17 1023.4
20170820034226 79 213 7.0 15.0 0.00 0.00 0.00 18 1023.6
20170820033724 78 211 6.0 12.0 0.00 0.00 0.00 23 1023.7
20170820033226 78 185 3.0 5.0 0.00 0.00 0.00 26 1023.9
20170820032743 78 185 3.0 6.0 0.00 0.00 0.00 26 1023.8
20170820032239 78 186 4.0 6.0 0.00 0.00 0.00 26 1023.9
20170820031737 79 186 1.0 4.0 0.00 0.00 0.00 26 1023.7
20170820031236 79 186 1.0 3.0 0.00 0.00 0.00 25 1023.7
20170820030731 79 186 0.0 3.0 0.00 0.00 0.00 25 1023.5
20170820030228 79 186 0.0 4.0 0.00 0.00 0.00 25 1023.6
20170820025728 80 186 1.0 3.0 0.00 0.00 0.00 24 1023.5
20170820025245 80 186 0.0 1.0 0.00 0.00 0.00 24 1023.4
20170820024743 80 186 0.0 5.0 0.00 0.00 0.00 23 1023.4
20170820024223 81 186 2.0 5.0 0.00 0.00 0.00 22 1023.4
20170820023723 81 186 0.0 3.0 0.00 0.00 0.00 22 1023.4
20170820023246 81 186 0.0 5.0 0.00 0.00 0.00 21 1023.3
20170820022742 82 186 1.0 5.0 0.00 0.00 0.00 21 1023.2
20170820022243 82 186 2.0 9.0 0.00 0.00 0.00 21 1023.1
20170820021741 82 188 5.0 9.0 0.00 0.00 0.00 19 1022.9
20170820021237 83 186 4.0 9.0 0.00 0.00 0.00 20 1022.8
20170820020737 83 182 2.0 7.0 0.00 0.00 0.00 19 1022.7
20170820020234 84 181 4.0 12.0 0.00 0.00 0.00 19 1022.7
20170820015737 84 187 5.0 12.0 0.00 0.00 0.00 18 1022.7
20170820015239 85 192 6.0 13.0 0.00 0.00 0.00 18 1022.6
20170820014734 85 192 5.0 13.0 0.00 0.00 0.00 17 1022.4
20170820014237 85 158 3.0 7.0 0.00 0.00 0.00 18 1022.3
20170820013732 85 179 4.0 8.0 0.00 0.00 0.00 18 1022.2
20170820013229 85 184 5.0 8.0 0.00 0.00 0.00 17 1022.2
20170820012726 85 190 4.0 5.0 0.00 0.00 0.00 18 1022.3
20170820012228 86 208 2.0 5.0 0.00 0.00 0.00 18 1022.4
20170820011732 86 208 0.0 1.0 0.00 0.00 0.00 19 1022.3
20170820011230 86 208 0.0 3.0 0.00 0.00 0.00 18 1022.2
20170820010747 87 208 0.0 3.0 0.00 0.00 0.00 17 1022.2
20170820010242 87 209 0.0 6.0 0.00 0.00 0.00 17 1022.2
20170820005729 87 209 4.0 6.0 0.00 0.00 0.00 16 1022.2
20170820005230 87 186 3.0 7.0 0.00 0.00 0.00 17 1022.1
20170820004728 88 187 4.0 8.0 0.00 0.00 0.00 17 1022.0
20170820004225 88 185 5.0 8.0 0.00 0.00 0.00 18 1021.9
20170820003729 88 147 2.0 5.0 0.00 0.00 0.00 19 1022.0
20170820003226 89 40 0.0 1.0 0.00 0.00 0.00 19 1021.9
20170820002743 89 40 0.0 3.0 0.00 0.00 0.00 19 1021.8
20170820002237 89 40 0.0 4.0 0.00 0.00 0.00 19 1021.8
20170820001734 89 40 0.0 4.0 0.00 0.00 0.00 19 1021.8
20170820001231 90 40 1.0 5.0 0.00 0.00 0.00 19 1021.8
20170820000732 90 40 2.0 8.0 0.00 0.00 0.00 18 1021.7
20170820000235 90 34 2.0 8.0 0.00 0.00 0.00 18 1021.7
20170819235734 90 34 7.0 9.0 0.00 0.00 0.00 18 1021.6
20170819235235 90 39 5.0 8.0 0.00 0.00 0.00 19 1021.6
20170819234737 90 44 1.0 6.0 0.00 0.00 0.00 18 1021.6
20170819234230 91 44 1.0 9.0 0.00 0.00 0.00 17 1021.6
20170819233737 91 42 5.0 9.0 0.00 0.00 0.00 17 1021.5
20170819233237 91 61 3.0 8.0 0.00 0.00 0.00 18 1021.6
20170819232733 91 51 6.0 8.0 0.00 0.00 0.00 18 1021.5
20170819232234 91 65 4.0 12.0 0.00 0.00 0.00 17 1021.5
20170819231731 92 39 9.0 12.0 0.00 0.00 0.00 17 1021.4
20170819231230 92 36 7.0 12.0 0.00 0.00 0.00 18 1021.5
20170819230728 92 72 6.0 13.0 0.00 0.00 0.00 17 1021.5
20170819230226 92 50 4.0 8.0 0.00 0.00 0.00 16 1021.5
20170819225727 92 45 2.0 13.0 0.00 0.00 0.00 17 1021.5
20170819225226 92 46 5.0 13.0 0.00 0.00 0.00 16 1021.5
20170819224727 92 43 8.0 16.0 0.00 0.00 0.00 16 1021.5
20170819224228 92 32 11.0 16.0 0.00 0.00 0.00 17 1021.5
20170819223730 92 29 12.0 15.0 0.00 0.00 0.00 16 1021.5
20170819223248 93 23 9.0 16.0 0.00 0.00 0.00 15 1021.5
20170819222741 93 32 11.0 16.0 0.00 0.00 0.00 16 1021.4
20170819222238 93 18 10.0 14.0 0.00 0.00 0.00 15 1021.4
20170819221734 93 44 7.0 13.0 0.00 0.00 0.00 16 1021.5
20170819221230 93 20 2.0 9.0 0.00 0.00 0.00 15 1021.6
20170819220234 93 329 2.0 14.0 0.00 0.00 0.00 15 1021.7
20170819215732 93 23 5.0 17.0 0.00 0.00 0.00 14 1021.8
20170819215233 94 26 9.0 17.0 0.00 0.00 0.00 15 1021.7
20170819214729 94 268 5.0 14.0 0.00 0.00 0.00 14 1021.7
20170819214229 94 17 2.0 8.0 0.00 0.00 0.00 14 1021.7
20170819213727 94 323 1.0 6.0 0.00 0.00 0.00 13 1021.8
20170819213226 95 324 3.0 14.0 0.00 0.00 0.00 12 1021.9
20170819212746 96 19 5.0 14.0 0.00 0.00 0.00 13 1021.9
20170819212238 96 42 4.0 10.0 0.00 0.00 0.00 11 1021.9
20170819211736 95 274 1.0 8.0 0.00 0.00 0.00 13 1022.0
20170819211237 96 288 5.0 8.0 0.00 0.00 0.00 12 1022.1
20170819210738 96 288 1.0 7.0 0.00 0.00 0.00 13 1021.9
20170819210236 96 278 2.0 7.0 0.00 0.00 0.00 12 1022.1
20170819205737 96 245 2.0 7.0 0.00 0.00 0.00 14 1022.2
20170819205233 96 235 4.0 11.0 0.00 0.00 0.00 12 1022.2
20170819204735 96 236 4.0 11.0 0.00 0.00 0.00 12 1022.3
20170819204236 96 232 3.0 9.0 0.00 0.00 0.00 14 1022.2
20170819203735 96 296 1.0 6.0 0.00 0.00 0.00 15 1022.3
20170819203239 95 228 3.0 5.0 0.00 0.00 0.00 13 1022.3
20170819202741 95 259 0.0 7.0 0.00 0.00 0.00 14 1022.4
20170819202238 95 260 3.0 7.0 0.00 0.00 0.00 15 1022.6
20170819201737 95 282 2.0 7.0 0.00 0.00 0.00 12 1022.6
20170819201240 95 241 3.0 8.0 0.00 0.00 0.00 13 1022.7
20170819200740 96 288 3.0 8.0 0.00 0.00 0.00 14 1022.7
20170819200240 95 278 2.0 7.0 0.00 0.00 0.00 14 1022.8
20170819195741 95 245 3.0 7.0 0.00 0.00 0.00 15 1022.9
20170819195242 95 295 4.0 7.0 0.00 0.00 0.00 12 1023.0
20170819194740 95 258 2.0 7.0 0.00 0.00 0.00 13 1023.1
20170819194241 95 292 0.0 6.0 0.00 0.00 0.00 15 1023.1
20170819193723 94 293 2.0 6.0 0.00 0.00 0.00 13 1023.2
20170819193243 94 236 3.0 6.0 0.00 0.00 0.00 16 1023.2
20170819192743 94 77 0.0 4.0 0.00 0.00 0.00 14 1023.3
20170819192243 94 77 1.0 4.0 0.00 0.00 0.00 17 1023.4
20170819191745 94 349 0.0 5.0 0.00 0.00 0.00 14 1023.4
20170819191240 95 349 2.0 7.0 0.00 0.00 0.00 13 1023.4
20170819190742 96 218 4.0 7.0 0.00 0.00 0.00 14 1023.5
20170819190241 97 159 2.0 7.0 0.00 0.00 0.00 14 1023.4
20170819185727 97 155 3.0 7.0 0.00 0.00 0.00 13 1023.5
20170819185227 96 177 2.0 8.0 0.00 0.00 0.00 15 1023.6
20170819184746 94 185 1.0 8.0 0.00 0.00 0.00 14 1023.7
20170819184227 94 181 1.0 8.0 0.00 0.00 0.00 15 1023.7
20170819183744 94 190 4.0 7.0 0.00 0.00 0.00 14 1023.9
20170819183223 93 209 2.0 5.0 0.00 0.00 0.00 14 1024.0
20170819182730 94 231 0.0 5.0 0.00 0.00 0.00 17 1024.1
20170819182244 95 157 2.0 5.0 0.00 0.00 0.00 14 1024.1
20170819181740 96 155 0.0 6.0 0.00 0.00 0.00 16 1024.2
20170819181238 93 178 2.0 9.0 0.00 0.00 0.00 15 1024.3
20170819180736 93 184 3.0 9.0 0.00 0.00 0.00 17 1024.4
20170819180237 93 168 1.0 6.0 0.00 0.00 0.00 16 1024.5
20170819175737 93 167 2.0 7.0 0.00 0.00 0.00 18 1024.5
20170819175235 93 142 2.0 7.0 0.00 0.00 0.00 18 1024.6
20170819174733 92 153 4.0 6.0 0.00 0.00 0.00 20 1024.7
20170819174233 92 176 3.0 6.0 0.00 0.00 0.00 20 1024.7
20170819173733 91 186 1.0 6.0 0.00 0.00 0.00 20 1024.8
20170819173230 92 181 2.0 6.0 0.00 0.00 0.00 19 1024.8
20170819172735 91 157 2.0 5.0 0.00 0.00 0.00 20 1024.9
20170819172230 89 184 1.0 6.0 0.00 0.00 0.00 22 1025.0
20170819171731 88 184 3.0 6.0 0.00 0.00 0.00 19 1025.0